createdAt,value
2023-03-20T00:01:33.512Z,98467.78
2023-03-20T00:04:21.376Z,98474.31
2023-03-20T00:07:12.476Z,98472.22
2023-03-20T00:10:01.208Z,98473.63
2023-03-20T00:12:51.816Z,98477.50
2023-03-20T00:15:43.540Z,98474.13
2023-03-20T00:18:33.123Z,98471.88
2023-03-20T00:21:21.452Z,98465.19
2023-03-20T00:24:09.832Z,98463.53
2023-03-20T00:26:57.864Z,98474.13
2023-03-20T00:29:46.521Z,98484.59
2023-03-20T00:32:37.501Z,98488.03
2023-03-20T00:35:29.518Z,98484.41
2023-03-20T00:38:17.351Z,98485.78
2023-03-20T00:41:20.402Z,98477.00
2023-03-20T00:44:19.472Z,98485.53
2023-03-20T00:47:13.949Z,98482.75
2023-03-20T00:50:03.048Z,98490.41
2023-03-20T00:52:52.810Z,98499.03
2023-03-20T00:55:41.694Z,98500.00
2023-03-20T00:58:29.600Z,98497.91
2023-03-20T01:01:18.155Z,98495.50
2023-03-20T01:04:13.911Z,98495.78
2023-03-20T01:07:02.269Z,98488.84
2023-03-20T01:09:52.676Z,98484.84
2023-03-20T01:12:41.835Z,98480.78
2023-03-20T01:15:34.135Z,98490.09
2023-03-20T01:18:24.344Z,98492.88
2023-03-20T01:21:12.974Z,98498.97
2023-03-20T01:24:00.941Z,98485.34
2023-03-20T01:26:51.710Z,98494.41
2023-03-20T01:29:39.581Z,98498.31
2023-03-20T01:32:27.650Z,98494.16
2023-03-20T01:35:18.278Z,98502.78
2023-03-20T01:38:12.622Z,98508.03
2023-03-20T01:41:05.350Z,98500.53
2023-03-20T01:43:55.253Z,98489.38
2023-03-20T01:46:43.759Z,98496.47
2023-03-20T01:50:23.311Z,98488.25
2023-03-20T01:53:16.620Z,98490.09
2023-03-20T01:56:04.365Z,98493.28
2023-03-20T01:58:59.560Z,98488.00
2023-03-20T02:01:47.906Z,98485.66
2023-03-20T02:04:42.820Z,98492.47
2023-03-20T02:07:31.864Z,98502.22
2023-03-20T02:10:20.369Z,98495.25
2023-03-20T02:13:10.990Z,98503.75
2023-03-20T02:16:05.907Z,98504.84
2023-03-20T02:18:56.237Z,98493.28
2023-03-20T02:22:17.808Z,98500.28
2023-03-20T02:26:02.667Z,98498.56
2023-03-20T02:29:29.858Z,98495.13
2023-03-20T02:33:00.581Z,98499.56
2023-03-20T02:36:27.222Z,98503.59
2023-03-20T02:39:48.065Z,98496.66
2023-03-20T02:42:41.602Z,98494.28
2023-03-20T02:45:31.619Z,98498.56
2023-03-20T02:48:32.970Z,98504.84
2023-03-20T02:51:30.687Z,98503.88
2023-03-20T02:54:25.602Z,98500.69
2023-03-20T02:57:23.363Z,98495.13
2023-03-20T03:00:15.453Z,98497.19
2023-03-20T03:03:10.952Z,98496.47
2023-03-20T03:06:03.491Z,98496.72
2023-03-20T03:08:56.893Z,98499.28
2023-03-20T03:11:46.591Z,98511.94
2023-03-20T03:14:42.009Z,98512.59
2023-03-20T03:17:34.304Z,98513.47
2023-03-20T03:20:27.862Z,98509.69
2023-03-20T03:23:24.393Z,98518.63
2023-03-20T03:26:19.694Z,98515.97
2023-03-20T03:29:14.786Z,98505.38
2023-03-20T03:32:08.986Z,98509.16
2023-03-20T03:34:57.984Z,98500.22
2023-03-20T03:37:57.022Z,98504.66
2023-03-20T03:40:51.143Z,98517.22
2023-03-20T03:43:47.324Z,98515.56
2023-03-20T03:46:44.788Z,98512.19
2023-03-20T03:49:37.739Z,98524.75
2023-03-20T03:52:27.583Z,98540.16
2023-03-20T03:55:19.898Z,98525.63
2023-03-20T03:58:12.821Z,98524.09
2023-03-20T04:01:03.933Z,98527.97
2023-03-20T04:03:54.889Z,98528.97
2023-03-20T04:06:46.672Z,98531.53
2023-03-20T04:09:34.629Z,98536.94
2023-03-20T04:12:36.278Z,98538.72
2023-03-20T04:15:24.077Z,98532.00
2023-03-20T04:18:17.904Z,98526.13
2023-03-20T04:21:06.748Z,98524.59
2023-03-20T04:23:55.911Z,98528.34
2023-03-20T04:26:44.139Z,98528.59
2023-03-20T04:29:31.844Z,98527.16
2023-03-20T04:32:19.927Z,98522.97
2023-03-20T04:35:08.733Z,98522.81
2023-03-20T04:37:56.857Z,98531.00
2023-03-20T04:40:47.686Z,98531.25
2023-03-20T04:43:38.122Z,98534.00
2023-03-20T04:46:26.323Z,98532.84
2023-03-20T04:49:14.716Z,98534.78
2023-03-20T04:52:03.227Z,98530.59
2023-03-20T04:54:51.149Z,98535.16
2023-03-20T04:57:40.973Z,98537.06
2023-03-20T05:00:28.745Z,98546.94
2023-03-20T05:03:16.841Z,98543.59
2023-03-20T05:06:04.921Z,98540.94
2023-03-20T05:08:52.509Z,98552.47
2023-03-20T05:11:40.608Z,98566.59
2023-03-20T05:14:29.752Z,98571.91
2023-03-20T05:17:18.345Z,98568.59
2023-03-20T05:20:07.725Z,98566.75
2023-03-20T05:22:55.673Z,98574.56
2023-03-20T05:25:43.684Z,98573.63
2023-03-20T05:28:32.130Z,98576.44
2023-03-20T05:31:21.434Z,98588.97
2023-03-20T05:34:09.448Z,98586.31
2023-03-20T05:36:57.354Z,98594.44
2023-03-20T05:39:45.486Z,98598.84
2023-03-20T05:42:33.544Z,98602.47
2023-03-20T05:45:21.601Z,98606.16
2023-03-20T05:48:10.804Z,98605.56
2023-03-20T05:51:01.241Z,98619.75
2023-03-20T05:53:48.934Z,98615.75
2023-03-20T05:56:37.253Z,98620.28
2023-03-20T05:59:25.403Z,98635.41
2023-03-20T06:02:14.407Z,98631.56
2023-03-20T06:05:03.379Z,98646.78
2023-03-20T06:07:51.128Z,98653.22
2023-03-20T06:10:39.228Z,98654.41
2023-03-20T06:13:27.267Z,98652.72
2023-03-20T06:16:15.417Z,98660.41
2023-03-20T06:19:03.364Z,98663.50
2023-03-20T06:21:52.679Z,98659.88
2023-03-20T06:24:41.129Z,98662.78
2023-03-20T06:27:29.037Z,98660.97
2023-03-20T06:30:18.232Z,98660.84
2023-03-20T06:33:07.515Z,98664.66
2023-03-20T06:35:55.465Z,98661.06
2023-03-20T06:38:44.965Z,98668.75
2023-03-20T06:41:34.953Z,98672.31
2023-03-20T06:44:23.382Z,98677.78
2023-03-20T06:47:11.302Z,98669.31
2023-03-20T06:49:59.170Z,98670.06
2023-03-20T06:52:47.454Z,98670.63
2023-03-20T06:55:37.679Z,98666.91
2023-03-20T06:58:25.817Z,98666.63
2023-03-20T07:01:14.352Z,98667.31
2023-03-20T07:04:02.464Z,98664.41
2023-03-20T07:06:50.437Z,98668.47
2023-03-20T07:09:38.458Z,98665.44
2023-03-20T07:12:29.044Z,98662.03
2023-03-20T07:15:17.103Z,98662.47
2023-03-20T07:18:05.244Z,98667.50
2023-03-20T07:20:53.489Z,98666.28
2023-03-20T07:23:41.598Z,98676.13
2023-03-20T07:26:30.280Z,98678.59
2023-03-20T07:29:19.405Z,98673.75
2023-03-20T07:32:07.513Z,98680.50
2023-03-20T07:34:55.196Z,98688.59
2023-03-20T07:37:43.345Z,98682.19
2023-03-20T07:40:31.099Z,98679.97
2023-03-20T07:43:19.408Z,98678.59
2023-03-20T07:46:10.284Z,98685.63
2023-03-20T07:48:58.297Z,98676.53
2023-03-20T07:51:46.644Z,98674.50
2023-03-20T07:54:34.699Z,98681.06
2023-03-20T07:57:22.364Z,98676.59
2023-03-20T08:00:11.897Z,98670.06
2023-03-20T08:03:01.165Z,98682.75
2023-03-20T08:05:48.944Z,98682.38
2023-03-20T08:08:36.910Z,98675.38
2023-03-20T08:11:27.808Z,98676.81
2023-03-20T08:14:16.013Z,98673.22
2023-03-20T08:17:14.532Z,98671.22
2023-03-20T08:20:07.235Z,98672.78
2023-03-20T08:22:54.892Z,98672.63
2023-03-20T08:25:42.781Z,98665.66
2023-03-20T08:28:46.684Z,98657.81
2023-03-20T08:31:35.607Z,98651.38
2023-03-20T08:34:24.177Z,98656.56
2023-03-20T08:37:13.933Z,98649.97
2023-03-20T08:40:02.251Z,98647.13
2023-03-20T08:42:50.044Z,98645.47
2023-03-20T08:45:38.411Z,98649.34
2023-03-20T08:48:27.002Z,98646.25
2023-03-20T08:51:15.084Z,98648.41
2023-03-20T08:54:04.263Z,98638.88
2023-03-20T08:56:52.358Z,98644.69
2023-03-20T08:59:40.186Z,98640.53
2023-03-20T09:02:28.396Z,98645.53
2023-03-20T09:05:16.282Z,98650.41
2023-03-20T09:08:04.041Z,98651.38
2023-03-20T09:10:53.669Z,98656.03
2023-03-20T09:13:41.505Z,98650.47
2023-03-20T09:16:29.799Z,98647.47
2023-03-20T09:19:19.984Z,98644.53
2023-03-20T09:22:08.009Z,98644.81
2023-03-20T09:24:55.857Z,98640.56
2023-03-20T09:27:45.502Z,98642.94
2023-03-20T09:30:33.485Z,98655.25
2023-03-20T09:33:21.371Z,98651.34
2023-03-20T09:36:11.709Z,98656.50
2023-03-20T09:38:59.879Z,98659.41
2023-03-20T09:41:57.194Z,98652.97
2023-03-20T09:44:56.822Z,98658.00
2023-03-20T09:47:54.346Z,98662.84
2023-03-20T09:50:47.939Z,98661.53
2023-03-20T09:53:40.095Z,98655.94
2023-03-20T09:56:30.939Z,98656.09
2023-03-20T09:59:21.392Z,98654.44
2023-03-20T10:02:19.743Z,98657.88
2023-03-20T10:05:20.657Z,98653.25
2023-03-20T10:08:15.686Z,98649.97
2023-03-20T10:11:16.855Z,98648.63
2023-03-20T10:14:22.475Z,98653.19
2023-03-20T10:17:22.770Z,98648.84
2023-03-20T10:20:23.650Z,98657.34
2023-03-20T10:23:21.968Z,98654.03
2023-03-20T10:26:13.378Z,98656.41
2023-03-20T10:29:03.625Z,98645.78
2023-03-20T10:31:58.481Z,98645.78
2023-03-20T10:34:58.415Z,98648.44
2023-03-20T10:38:01.436Z,98650.16
2023-03-20T10:40:49.936Z,98652.81
2023-03-20T10:43:41.580Z,98643.81
2023-03-20T10:46:34.248Z,98640.66
2023-03-20T10:49:37.776Z,98648.22
2023-03-20T10:52:29.876Z,98650.22
2023-03-20T10:55:20.821Z,98651.91
2023-03-20T10:58:19.271Z,98642.38
2023-03-20T11:01:08.184Z,98644.25
2023-03-20T11:03:56.448Z,98639.75
2023-03-20T11:06:51.577Z,98636.25
2023-03-20T11:09:40.826Z,98635.59
2023-03-20T11:12:34.283Z,98631.78
2023-03-20T11:15:26.358Z,98636.78
2023-03-20T11:18:17.899Z,98627.09
2023-03-20T11:21:05.917Z,98632.28
2023-03-20T11:23:55.399Z,98624.28
2023-03-20T11:26:45.283Z,98623.59
2023-03-20T11:29:35.252Z,98622.59
2023-03-20T11:32:30.273Z,98625.94
2023-03-20T11:35:23.898Z,98622.91
2023-03-20T11:38:16.747Z,98621.56
2023-03-20T11:41:17.717Z,98622.75
2023-03-20T11:44:25.717Z,98621.25
2023-03-20T11:47:16.302Z,98616.72
2023-03-20T11:50:06.611Z,98618.03
2023-03-20T11:52:55.084Z,98614.84
2023-03-20T11:55:45.168Z,98611.19
2023-03-20T11:58:33.152Z,98608.81
2023-03-20T12:01:23.280Z,98607.78
2023-03-20T12:04:14.121Z,98600.44
2023-03-20T12:07:11.170Z,98594.88
2023-03-20T12:10:02.529Z,98597.53
2023-03-20T12:12:55.202Z,98598.94
2023-03-20T12:15:45.287Z,98591.56
2023-03-20T12:18:40.039Z,98589.84
2023-03-20T12:21:36.771Z,98581.50
2023-03-20T12:24:34.627Z,98578.72
2023-03-20T12:27:29.998Z,98567.63
2023-03-20T12:30:23.992Z,98564.97
2023-03-20T12:33:18.207Z,98565.41
2023-03-20T12:36:14.617Z,98565.09
2023-03-20T12:39:05.234Z,98567.41
2023-03-20T12:42:07.247Z,98569.06
2023-03-20T12:45:00.912Z,98563.59
2023-03-20T12:48:10.967Z,98563.47
2023-03-20T12:51:07.035Z,98567.63
2023-03-20T12:54:13.719Z,98558.56
2023-03-20T12:57:11.894Z,98560.97
2023-03-20T13:00:16.727Z,98564.47
2023-03-20T13:03:24.325Z,98566.34
2023-03-20T13:06:16.846Z,98555.00
2023-03-20T13:09:30.416Z,98555.13
2023-03-20T13:12:28.578Z,98561.09
2023-03-20T13:15:30.386Z,98556.44
2023-03-20T13:18:23.492Z,98545.53
2023-03-20T13:21:18.299Z,98546.53
2023-03-20T13:24:27.801Z,98554.56
2023-03-20T13:27:28.570Z,98552.38
2023-03-20T13:30:26.110Z,98555.56
2023-03-20T13:33:27.197Z,98548.66
2023-03-20T13:36:26.330Z,98551.19
2023-03-20T13:39:19.529Z,98545.31
2023-03-20T13:42:14.943Z,98543.16
2023-03-20T13:45:08.370Z,98540.63
2023-03-20T13:47:57.603Z,98535.47
2023-03-20T13:50:50.786Z,98536.06
2023-03-20T13:53:43.866Z,98533.03
2023-03-20T13:56:41.767Z,98525.22
2023-03-20T13:59:47.756Z,98526.91
2023-03-20T14:02:46.269Z,98528.81
2023-03-20T14:05:39.697Z,98524.81
2023-03-20T14:08:36.924Z,98518.16
2023-03-20T14:11:35.115Z,98515.50
2023-03-20T14:14:28.691Z,98519.22
2023-03-20T14:17:23.052Z,98515.59
2023-03-20T14:20:14.976Z,98513.38
2023-03-20T14:23:04.793Z,98516.34
2023-03-20T14:25:56.258Z,98516.06
2023-03-20T14:28:55.950Z,98517.19
2023-03-20T14:31:45.230Z,98510.00
2023-03-20T14:34:47.571Z,98507.69
2023-03-20T14:37:40.361Z,98508.03
2023-03-20T14:40:32.605Z,98505.72
2023-03-20T14:43:34.269Z,98513.16
2023-03-20T14:46:28.404Z,98512.63
2023-03-20T14:49:31.057Z,98503.44
2023-03-20T14:52:35.329Z,98503.44
2023-03-20T14:55:35.716Z,98508.28
2023-03-20T14:58:58.058Z,98503.69
2023-03-20T15:01:49.357Z,98502.97
2023-03-20T15:04:40.588Z,98502.00
2023-03-20T15:07:32.493Z,98500.34
2023-03-20T15:10:23.104Z,98503.38
2023-03-20T15:13:11.337Z,98494.69
2023-03-20T15:16:06.947Z,98498.03
2023-03-20T15:18:56.241Z,98495.53
2023-03-20T15:21:48.099Z,98502.72
2023-03-20T15:24:37.423Z,98497.22
2023-03-20T15:27:29.545Z,98494.53
2023-03-20T15:30:19.711Z,98488.22
2023-03-20T15:33:09.200Z,98486.53
2023-03-20T15:35:57.747Z,98485.88
2023-03-20T15:38:46.870Z,98486.88
2023-03-20T15:41:39.109Z,98494.25
2023-03-20T15:44:28.699Z,98501.94
2023-03-20T15:47:20.828Z,98500.13
2023-03-20T15:50:15.822Z,98498.97
2023-03-20T15:53:05.334Z,98502.00
2023-03-20T15:56:16.856Z,98498.81
2023-03-20T15:59:07.500Z,98495.63
2023-03-20T16:01:59.894Z,98497.97
2023-03-20T16:04:49.864Z,98494.19
2023-03-20T16:07:37.734Z,98505.19
2023-03-20T16:10:31.464Z,98499.84
2023-03-20T16:13:19.465Z,98498.34
2023-03-20T16:16:13.086Z,98506.38
2023-03-20T16:19:01.153Z,98502.59
2023-03-20T16:21:52.702Z,98489.69
2023-03-20T16:24:41.897Z,98499.88
2023-03-20T16:27:33.388Z,98500.22
2023-03-20T16:30:25.198Z,98499.75
2023-03-20T16:33:18.214Z,98500.41
2023-03-20T16:36:06.506Z,98502.75
2023-03-20T16:38:59.802Z,98497.25
2023-03-20T16:41:50.286Z,98489.75
2023-03-20T16:44:39.555Z,98501.75
2023-03-20T16:47:36.427Z,98496.09
2023-03-20T16:50:36.572Z,98496.75
2023-03-20T16:53:24.992Z,98497.63
2023-03-20T16:56:15.592Z,98498.75
2023-03-20T16:59:09.529Z,98498.59
2023-03-20T17:02:01.653Z,98500.91
2023-03-20T17:04:50.697Z,98501.88
2023-03-20T17:07:39.762Z,98508.41
2023-03-20T17:10:29.776Z,98514.53
2023-03-20T17:13:17.763Z,98509.88
2023-03-20T17:16:06.458Z,98518.50
2023-03-20T17:19:05.620Z,98521.81
2023-03-20T17:21:53.660Z,98512.97
2023-03-20T17:24:42.714Z,98519.97
2023-03-20T17:27:31.602Z,98521.72
2023-03-20T17:30:21.802Z,98523.84
2023-03-20T17:33:14.903Z,98523.84
2023-03-20T17:36:02.855Z,98517.09
2023-03-20T17:38:51.066Z,98521.72
2023-03-20T17:41:40.700Z,98521.97
2023-03-20T17:44:28.592Z,98524.59
2023-03-20T17:47:18.220Z,98523.53
2023-03-20T17:50:10.206Z,98526.28
2023-03-20T17:52:58.064Z,98533.91
2023-03-20T17:55:45.776Z,98533.84
2023-03-20T17:58:35.296Z,98537.28
2023-03-20T18:01:23.142Z,98531.19
2023-03-20T18:04:10.973Z,98533.81
2023-03-20T18:06:59.530Z,98534.72
2023-03-20T18:09:49.183Z,98526.66
2023-03-20T18:12:38.368Z,98529.25
2023-03-20T18:15:28.048Z,98523.84
2023-03-20T18:18:20.899Z,98535.38
2023-03-20T18:21:12.401Z,98536.31
2023-03-20T18:24:00.346Z,98538.03
2023-03-20T18:26:48.403Z,98529.97
2023-03-20T18:29:36.342Z,98536.88
2023-03-20T18:32:25.655Z,98532.59
2023-03-20T18:35:14.019Z,98538.63
2023-03-20T18:38:02.040Z,98534.06
2023-03-20T18:40:50.799Z,98538.09
2023-03-20T18:43:39.222Z,98533.53
2023-03-20T18:46:28.682Z,98538.75
2023-03-20T18:49:19.039Z,98536.97
2023-03-20T18:52:07.440Z,98542.00
2023-03-20T18:54:55.239Z,98539.78
2023-03-20T18:57:43.964Z,98536.03
2023-03-20T19:00:37.778Z,98547.22
2023-03-20T19:03:28.512Z,98540.53
2023-03-20T19:06:20.496Z,98540.38
2023-03-20T19:09:15.450Z,98548.66
2023-03-20T19:12:03.255Z,98547.25
2023-03-20T19:14:53.538Z,98553.97
2023-03-20T19:17:41.285Z,98551.75
2023-03-20T19:20:34.393Z,98557.31
2023-03-20T19:23:24.999Z,98552.88
2023-03-20T19:26:18.022Z,98541.69
2023-03-20T19:29:09.052Z,98546.19
2023-03-20T19:31:58.645Z,98550.91
2023-03-20T19:37:54.581Z,98549.66
2023-03-20T19:40:47.051Z,98547.84
2023-03-20T19:43:49.731Z,98555.13
2023-03-20T19:46:41.789Z,98553.28
2023-03-20T19:49:32.923Z,98549.94
2023-03-20T19:52:30.282Z,98547.44
2023-03-20T19:55:18.380Z,98554.69
2023-03-20T19:58:08.616Z,98546.88
2023-03-20T20:00:58.958Z,98551.34
2023-03-20T20:03:48.157Z,98548.72
2023-03-20T20:06:39.554Z,98541.03
2023-03-20T20:09:28.647Z,98541.97
2023-03-20T20:12:17.258Z,98537.25
2023-03-20T20:15:07.840Z,98541.72
2023-03-20T20:17:55.744Z,98538.53
2023-03-20T20:21:24.611Z,98539.47
2023-03-20T20:23:52.060Z,98536.97
2023-03-20T20:26:51.178Z,98541.59
2023-03-20T20:29:41.679Z,98542.53
2023-03-20T20:32:31.800Z,98544.50
2023-03-20T20:35:47.445Z,98536.69
2023-03-20T20:38:48.713Z,98535.84
2023-03-20T20:41:37.846Z,98539.50
2023-03-20T20:44:25.816Z,98535.84
2023-03-20T20:47:14.435Z,98535.84
2023-03-20T20:50:04.361Z,98534.19
2023-03-20T20:52:53.741Z,98539.50
2023-03-20T20:55:42.226Z,98542.28
2023-03-20T20:58:30.284Z,98546.44
2023-03-20T21:01:18.261Z,98548.28
2023-03-20T21:04:06.503Z,98542.53
2023-03-20T21:07:09.301Z,98538.94
2023-03-20T21:09:58.508Z,98545.31
2023-03-20T21:12:58.464Z,98539.88
2023-03-20T21:15:47.160Z,98537.94
2023-03-20T21:18:35.466Z,98543.53
2023-03-20T21:21:23.609Z,98535.56
2023-03-20T21:24:30.914Z,98535.28
2023-03-20T21:27:21.596Z,98525.53
2023-03-20T21:30:10.514Z,98528.34
2023-03-20T21:32:58.567Z,98535.56
2023-03-20T21:35:46.911Z,98530.53
2023-03-20T21:39:06.058Z,98528.88
2023-03-20T21:41:43.957Z,98529.16
2023-03-20T21:45:13.281Z,98521.50
2023-03-20T21:51:26.254Z,98526.63
2023-03-20T21:54:48.530Z,98525.38
2023-03-20T21:57:42.600Z,98511.59
2023-03-20T22:03:50.501Z,98514.06
2023-03-20T22:10:18.629Z,98513.94
2023-03-20T22:29:20.784Z,98538.97
2023-03-20T22:35:33.227Z,98548.53
2023-03-20T22:38:41.337Z,98543.63
2023-03-20T22:44:53.019Z,98551.44
2023-03-20T22:47:19.020Z,98549.03
2023-03-20T22:50:07.450Z,98560.88
2023-03-20T22:52:55.680Z,98557.53
2023-03-20T22:55:45.547Z,98560.16
2023-03-20T22:58:33.578Z,98551.50
2023-03-20T23:01:22.906Z,98553.47
2023-03-20T23:04:10.731Z,98551.78
2023-03-20T23:06:58.559Z,98548.44
2023-03-20T23:09:48.029Z,98541.44
2023-03-20T23:12:41.242Z,98529.19
2023-03-20T23:15:31.134Z,98542.56
2023-03-20T23:18:20.868Z,98539.06
2023-03-20T23:21:09.906Z,98533.09
2023-03-20T23:23:57.487Z,98530.44
2023-03-20T23:26:45.644Z,98535.88
2023-03-20T23:29:33.551Z,98530.56
2023-03-20T23:32:21.669Z,98537.53
2023-03-20T23:35:11.513Z,98538.53
2023-03-20T23:37:59.132Z,98538.66
2023-03-20T23:40:50.632Z,98531.69
2023-03-20T23:43:39.159Z,98538.91
2023-03-20T23:46:26.878Z,98539.91
2023-03-20T23:49:14.419Z,98537.50
2023-03-20T23:52:03.548Z,98535.81
2023-03-20T23:54:51.293Z,98539.44
2023-03-20T23:57:39.235Z,98533.28
